Time;durP1;ratioP1;P1;durP2;ratioP2;P2;SDS_P1;SDS_P2;PMS_P1;PMS_P2;Temp;Humidity;BMP_temperature;BMP_pressure;BME280_temperature;BME280_humidity;BME280_pressure;Samples;Min_cycle;Max_cycle;Signal;HPM_P1;HPM_P2
2022/06/25 00:01:28;;;;;;;4.93;3.40;;;18.00;99.90;;;18.12;100.00;100199.72;4957060;28;20114;-75
2022/06/25 00:03:55;;;;;;;3.47;3.15;;;18.00;99.90;;;18.10;100.00;100196.25;4988903;28;20419;-74
2022/06/25 00:06:25;;;;;;;3.83;3.53;;;18.00;99.90;;;18.07;100.00;100201.78;4989511;28;20074;-75
2022/06/25 00:08:54;;;;;;;5.15;3.45;;;18.00;99.90;;;18.09;100.00;100197.22;4987562;28;20046;-75
2022/06/25 00:14:12;;;;;;;8.13;3.70;;;17.90;99.90;;;18.02;100.00;100198.50;4968510;28;20062;-73
2022/06/25 00:16:39;;;;;;;4.05;3.47;;;18.10;99.90;;;18.01;100.00;100197.63;4970218;28;20768;-74
2022/06/25 00:19:06;;;;;;;3.35;3.05;;;17.90;99.90;;;18.04;100.00;100208.16;4967373;28;20113;-75
2022/06/25 00:21:33;;;;;;;3.78;3.47;;;17.90;99.90;;;18.06;100.00;100206.25;4967997;28;20053;-75
2022/06/25 00:24:00;;;;;;;6.18;3.58;;;17.90;99.90;;;17.91;100.00;100201.78;4984343;28;20718;-75
2022/06/25 00:26:28;;;;;;;5.60;3.28;;;17.80;99.90;;;17.86;100.00;100207.38;4968589;28;20668;-74
2022/06/25 00:28:55;;;;;;;3.30;2.90;;;18.50;99.90;;;17.83;100.00;100207.56;4968914;28;20042;-74
2022/06/25 00:31:22;;;;;;;6.35;3.33;;;17.80;99.90;;;17.77;100.00;100208.75;4956133;28;20129;-75
2022/06/25 00:33:50;;;;;;;3.38;3.08;;;17.70;99.90;;;17.70;100.00;100202.91;4970927;28;20113;-74
2022/06/25 00:36:17;;;;;;;4.25;3.65;;;17.70;99.90;;;17.59;100.00;100210.63;4987277;28;20528;-74
2022/06/25 00:38:44;;;;;;;4.15;3.35;;;17.60;99.90;;;17.53;100.00;100211.84;4970447;28;20159;-72
2022/06/25 00:41:23;;;;;;;5.18;3.97;;;17.60;99.90;;;17.53;100.00;100211.84;4985533;28;20381;-74
2022/06/25 00:43:50;;;;;;;6.68;3.95;;;17.50;99.90;;;17.51;100.00;100213.72;4971122;28;20060;-74
2022/06/25 00:46:17;;;;;;;5.28;3.60;;;17.50;99.90;;;17.50;100.00;100214.66;4971407;28;20088;-74
2022/06/25 00:48:44;;;;;;;3.97;3.33;;;17.50;99.90;;;17.36;100.00;100223.44;4987902;28;20070;-74
2022/06/25 00:51:21;;;;;;;5.38;3.45;;;17.40;99.90;;;17.40;100.00;100221.44;4971992;28;20058;-73
2022/06/25 00:53:49;;;;;;;6.28;3.03;;;17.40;99.90;;;17.42;100.00;100222.22;4987378;28;20038;-74
2022/06/25 00:56:18;;;;;;;5.32;3.17;;;17.40;99.90;;;17.43;100.00;100219.47;4987715;28;20499;-73
2022/06/25 00:58:45;;;;;;;3.70;3.40;;;17.40;99.90;;;17.40;100.00;100219.66;4986914;28;20058;-74
2022/06/25 01:01:14;;;;;;;5.97;3.30;;;17.40;99.90;;;17.37;100.00;100219.81;4986800;28;20809;-74
2022/06/25 01:03:44;;;;;;;7.72;3.80;;;17.30;99.90;;;17.40;100.00;100216.97;4986825;28;20053;-74
2022/06/25 01:06:11;;;;;;;;;;;17.40;99.90;;;17.31;100.00;100217.47;4989357;28;20038;-74
2022/06/25 01:08:38;;;;;;;4.88;3.25;;;17.40;99.90;;;17.23;100.00;100220.56;4987176;28;19932;-73
2022/06/25 01:11:07;;;;;;;6.65;3.03;;;17.30;99.90;;;17.13;100.00;100220.19;4986663;28;20046;-74
2022/06/25 01:13:35;;;;;;;5.95;3.38;;;17.30;99.90;;;17.20;100.00;100226.03;4988230;28;20046;-73
2022/06/25 01:16:03;;;;;;;3.53;3.22;;;17.20;99.90;;;17.20;100.00;100227.88;4970835;28;20141;-74
2022/06/25 01:18:30;;;;;;;7.70;3.97;;;17.20;99.90;;;17.28;100.00;100231.81;4986586;28;20077;-73
2022/06/25 01:20:59;;;;;;;4.78;3.80;;;17.20;99.90;;;17.34;100.00;100230.63;4985871;28;20050;-74
2022/06/25 01:23:30;;;;;;;5.13;3.58;;;17.20;99.90;;;17.37;100.00;100233.13;4987019;28;20054;-73
2022/06/25 01:25:57;;;;;;;5.70;3.92;;;17.20;99.90;;;17.41;100.00;100231.16;4971183;28;20100;-73
2022/06/25 01:28:24;;;;;;;5.22;3.97;;;17.20;99.90;;;17.42;100.00;100235.53;4987398;28;20065;-74
2022/06/25 01:30:51;;;;;;;8.43;3.72;;;17.30;99.90;;;17.41;100.00;100232.00;4970059;28;20050;-73
2022/06/25 01:33:18;;;;;;;4.28;3.50;;;17.30;99.90;;;17.43;100.00;100230.09;4986257;28;20051;-74
2022/06/25 01:35:45;;;;;;;3.92;3.53;;;17.30;99.90;;;17.41;100.00;100224.03;4988698;28;20038;-74
2022/06/25 01:38:12;;;;;;;3.92;3.38;;;17.30;99.90;;;17.38;100.00;100228.63;4971189;28;20057;-74
2022/06/25 01:40:39;;;;;;;4.22;3.30;;;17.30;99.90;;;17.22;100.00;100225.97;4969782;28;20054;-73
2022/06/25 01:43:06;;;;;;;6.00;3.40;;;17.20;99.90;;;17.12;100.00;100230.94;4986851;28;20066;-72
2022/06/25 01:45:36;;;;;;;5.05;2.78;;;17.20;99.90;;;17.08;100.00;100229.34;4988015;28;20042;-74
2022/06/25 01:48:06;;;;;;;4.47;2.78;;;17.10;99.90;;;16.94;100.00;100227.41;4987053;28;20074;-73
2022/06/25 01:50:36;;;;;;;3.13;2.70;;;17.00;99.90;;;16.84;100.00;100229.69;4987106;28;20141;-73
2022/06/25 01:53:05;;;;;;;5.05;2.70;;;17.00;99.90;;;16.80;100.00;100233.47;4974729;28;20057;-72
2022/06/25 01:55:35;;;;;;;3.40;3.00;;;16.90;99.90;;;16.80;100.00;100231.66;4990307;28;20046;-73
2022/06/25 01:58:04;;;;;;;3.38;3.10;;;16.90;99.90;;;16.80;100.00;100236.13;4990593;28;20091;-73
2022/06/25 02:00:32;;;;;;;5.28;2.70;;;16.80;99.90;;;16.75;100.00;100236.34;4973548;28;20047;-74
2022/06/25 02:03:06;;;;;;;3.75;3.33;;;16.80;99.90;;;16.79;100.00;100242.38;4956918;28;20078;-74
2022/06/25 02:08:21;;;;;;;4.05;2.45;;;16.80;99.90;;;16.78;100.00;100240.63;4957579;28;20062;-74
2022/06/25 02:10:49;;;;;;;3.10;2.42;;;16.80;99.90;;;16.83;100.00;100244.78;4969007;28;20058;-74
2022/06/25 02:13:17;;;;;;;3.08;2.45;;;16.80;99.90;;;16.72;100.00;100239.19;4974195;28;20039;-73
2022/06/25 02:15:44;;;;;;;3.95;2.60;;;16.70;99.90;;;16.67;100.00;100238.53;4974719;28;20050;-73
2022/06/25 02:18:11;;;;;;;4.25;2.75;;;16.70;99.90;;;16.59;100.00;100234.50;4986332;28;20035;-74
2022/06/25 02:20:39;;;;;;;6.18;3.22;;;16.70;99.90;;;16.51;100.00;100243.78;4946588;29;20055;-74
2022/06/25 02:23:09;;;;;;;4.95;3.20;;;16.80;99.90;;;16.52;100.00;100242.84;4933958;29;20064;-73
2022/06/25 02:25:36;;;;;;;3.50;2.70;;;16.60;99.90;;;16.50;100.00;100244.72;4933682;29;20154;-74
2022/06/25 02:28:11;;;;;;;5.43;2.45;;;16.60;99.90;;;16.54;100.00;100247.13;4918877;29;20058;-74
2022/06/25 02:30:38;;;;;;;3.13;2.60;;;16.50;99.90;;;16.48;100.00;100247.47;4958987;28;20058;-73
2022/06/25 02:33:11;;;;;;;4.03;3.17;;;16.50;99.90;;;16.50;100.00;100250.03;4948180;28;20417;-74
2022/06/25 02:35:41;;;;;;;7.05;3.10;;;16.50;99.90;;;16.44;100.00;100246.75;4952955;28;20420;-74
2022/06/25 02:38:11;;;;;;;2.72;2.53;;;16.50;99.90;;;16.48;100.00;100250.13;4939673;28;20042;-74
2022/06/25 02:40:40;;;;;;;3.83;2.88;;;16.50;99.90;;;16.41;100.00;100260.19;4934166;28;20066;-74
2022/06/25 02:43:08;;;;;;;3.63;2.75;;;16.50;99.90;;;16.39;100.00;100253.22;4937037;28;20055;-73
2022/06/25 02:45:40;;;;;;;7.13;2.65;;;16.50;99.90;;;16.39;100.00;100250.56;4933125;29;20489;-74
2022/06/25 02:48:08;;;;;;;5.53;3.00;;;16.60;99.90;;;16.41;100.00;100251.38;4917727;29;20055;-74
2022/06/25 02:50:36;;;;;;;3.25;2.60;;;16.90;99.90;;;16.45;100.00;100252.94;4938944;28;20245;-74
2022/06/25 02:53:03;;;;;;;2.85;2.42;;;16.40;99.90;;;16.52;100.00;100262.28;4973034;28;20054;-74
2022/06/25 03:01:04;;;;;;;5.40;2.97;;;16.40;99.90;;;16.44;100.00;100260.03;5004420;28;20146;-74
2022/06/25 03:03:31;;;;;;;3.42;3.00;;;16.50;99.90;;;16.39;100.00;100258.53;4971338;28;20423;-74
2022/06/25 03:05:58;;;;;;;3.88;2.63;;;16.50;99.90;;;16.44;100.00;100256.53;4988991;28;20077;-74
2022/06/25 03:08:27;;;;;;;4.78;3.30;;;16.40;99.90;;;16.47;100.00;100264.31;4988826;28;20117;-74
2022/06/25 03:10:54;;;;;;;3.30;3.00;;;16.40;99.90;;;16.45;100.00;100255.59;4971549;28;20054;-74
2022/06/25 03:13:22;;;;;;;7.72;3.67;;;16.40;99.90;;;16.47;100.00;100250.19;4971902;28;20038;-73
2022/06/25 03:15:49;;;;;;;3.70;3.30;;;16.40;99.90;;;16.50;100.00;100256.19;4972842;28;20069;-74
2022/06/25 03:18:16;;;;;;;4.78;3.17;;;16.40;99.90;;;16.55;100.00;100259.50;4989857;28;20058;-74
2022/06/25 03:21:15;;;;;;;3.20;2.72;;;16.40;99.90;;;16.61;100.00;100260.13;4945964;28;20047;-73
2022/06/25 03:23:42;;;;;;;5.90;4.03;;;16.50;99.90;;;16.65;100.00;100262.53;4971528;28;20056;-74
2022/06/25 03:26:10;;;;;;;5.50;3.70;;;16.50;99.90;;;16.66;100.00;100258.94;4982742;28;20047;-73
2022/06/25 03:28:37;;;;;;;7.03;4.15;;;16.50;99.90;;;16.66;100.00;100255.41;4967245;28;20050;-74
2022/06/25 03:31:05;;;;;;;4.30;3.35;;;16.50;99.90;;;16.62;100.00;100262.69;4981170;28;20137;-73
2022/06/25 03:33:32;;;;;;;6.30;3.20;;;16.60;99.90;;;16.66;100.00;100261.59;4986923;28;20050;-74
2022/06/25 03:36:11;;;;;;;6.88;3.35;;;16.60;99.90;;;16.63;100.00;100269.75;4973898;28;20074;-74
2022/06/25 03:38:43;;;;;;;3.70;2.80;;;16.60;99.90;;;16.47;100.00;100264.31;4987864;28;20105;-73
2022/06/25 03:44:11;;;;;;;2.70;2.50;;;16.50;99.90;;;16.35;100.00;100263.16;4975937;28;20050;-74
2022/06/25 03:46:39;;;;;;;3.72;2.85;;;16.40;99.90;;;16.34;100.00;100265.88;4972080;28;20522;-73
2022/06/25 03:49:06;;;;;;;4.80;2.97;;;16.40;99.90;;;16.20;100.00;100267.41;4987366;28;20681;-74
2022/06/25 03:51:50;;;;;;;4.53;2.70;;;16.30;99.90;;;16.23;100.00;100275.22;4973824;28;20674;-74
2022/06/25 03:54:18;;;;;;;5.85;2.50;;;16.30;99.90;;;16.23;100.00;100275.22;4971430;28;20463;-76
2022/06/25 03:56:46;;;;;;;2.67;2.40;;;16.20;99.90;;;16.30;100.00;100281.09;4971571;28;20129;-74
2022/06/25 03:59:13;;;;;;;4.88;3.08;;;16.20;99.90;;;16.33;100.00;100275.66;4987128;28;20046;-74
2022/06/25 04:01:40;;;;;;;5.75;3.33;;;16.30;99.90;;;16.31;100.00;100277.50;4970195;28;20046;-74
2022/06/25 04:04:07;;;;;;;5.72;2.75;;;16.30;99.90;;;16.35;100.00;100276.44;4971124;28;20573;-73
2022/06/25 04:06:34;;;;;;;4.07;2.60;;;16.30;99.90;;;16.34;100.00;100273.84;4971721;28;20110;-74
2022/06/25 04:09:03;;;;;;;5.15;3.00;;;16.30;99.90;;;16.34;100.00;100273.84;4971136;28;20050;-75
2022/06/25 04:11:32;;;;;;;5.28;2.65;;;16.30;99.90;;;16.35;100.00;100275.56;4971114;28;20145;-73
2022/06/25 04:14:01;;;;;;;5.30;2.90;;;16.30;99.90;;;16.31;100.00;100277.50;4987186;28;20053;-73
2022/06/25 04:16:28;;;;;;;3.05;2.53;;;16.40;99.90;;;16.41;100.00;100283.22;4987385;28;20507;-74
2022/06/25 04:19:01;;;;;;;3.38;2.78;;;16.30;99.90;;;16.37;100.00;100285.19;4986570;28;20050;-74
2022/06/25 04:21:32;;;;;;;3.30;2.75;;;16.30;99.90;;;16.45;100.00;100287.44;4971783;28;20048;-74
2022/06/25 04:24:00;;;;;;;3.17;2.60;;;16.40;99.90;;;16.51;100.00;100284.47;4971108;28;20530;-74
2022/06/25 04:26:30;;;;;;;8.48;3.83;;;16.40;99.90;;;16.56;100.00;100289.56;4972132;28;20046;-73
2022/06/25 04:29:03;;;;;;;3.72;2.97;;;16.40;99.90;;;16.63;100.00;100290.09;4986878;28;20042;-73
2022/06/25 04:31:45;;;;;;;7.82;3.40;;;16.40;99.90;;;16.59;100.00;100292.94;4973447;28;20050;-74
2022/06/25 04:34:35;;;;;;;3.95;3.28;;;16.50;99.90;;;16.68;100.00;100299.56;4986166;28;20538;-73
2022/06/25 04:37:02;;;;;;;3.85;3.47;;;16.50;99.90;;;16.64;100.00;100298.00;4970983;28;20578;-73
2022/06/25 04:39:33;;;;;;;7.38;2.95;;;16.60;99.90;;;16.71;100.00;100299.41;4986475;28;20042;-73
2022/06/25 04:42:00;;;;;;;4.97;3.38;;;16.60;99.90;;;16.77;100.00;100294.72;4986768;28;20043;-74
2022/06/25 04:44:29;;;;;;;9.25;3.72;;;16.60;99.90;;;16.81;100.00;100302.44;4983871;28;20046;-73
2022/06/25 04:46:58;;;;;;;3.60;3.20;;;16.70;99.90;;;16.81;100.00;100306.91;4974636;28;20054;-74
2022/06/25 04:49:40;;;;;;;5.72;3.35;;;16.60;99.90;;;16.92;100.00;100312.53;4953006;28;20050;-73
2022/06/25 04:52:08;;;;;;;3.65;3.28;;;16.70;99.90;;;16.97;100.00;100307.84;4951640;28;20141;-73
2022/06/25 04:54:36;;;;;;;6.78;3.28;;;16.80;99.90;;;17.05;100.00;100314.59;4967127;28;20050;-74
2022/06/25 04:57:10;;;;;;;5.68;3.38;;;16.80;99.90;;;17.07;100.00;100318.00;4987716;28;20137;-73
2022/06/25 04:59:57;;;;;;;5.05;3.28;;;16.90;99.90;;;17.13;100.00;100317.72;4987486;28;20046;-74
2022/06/25 05:02:32;;;;;;;6.15;3.80;;;16.90;99.90;;;17.16;100.00;100317.53;4975512;28;20141;-74
2022/06/25 05:05:07;;;;;;;4.47;4.00;;;17.00;99.90;;;17.21;100.00;100326.13;4987295;28;20145;-73
2022/06/25 05:07:35;;;;;;;9.48;3.70;;;17.00;99.90;;;17.23;100.00;100321.59;4974849;28;20055;-73
2022/06/25 05:10:04;;;;;;;5.45;3.50;;;17.00;99.90;;;17.26;100.00;100320.56;4985822;28;20046;-74
2022/06/25 05:15:17;;;;;;;3.38;3.00;;;17.10;99.90;;;17.40;100.00;100330.47;4969824;28;20101;-74
2022/06/25 05:17:44;;;;;;;4.78;3.72;;;17.20;99.90;;;17.48;100.00;100317.63;4968113;28;20543;-74
2022/06/25 05:20:18;;;;;;;6.80;3.80;;;17.20;99.90;;;17.52;100.00;100326.31;4967920;28;20516;-73
2022/06/25 05:22:45;;;;;;;5.60;4.50;;;17.30;99.90;;;17.48;100.00;100338.03;4969426;28;20046;-74
2022/06/25 05:25:12;;;;;;;4.82;3.55;;;17.90;99.90;;;17.56;100.00;100335.84;4985131;28;20059;-74
2022/06/25 05:27:40;;;;;;;5.38;2.95;;;17.40;99.90;;;17.65;100.00;100332.69;4956876;28;20455;-74
2022/06/25 05:30:07;;;;;;;8.77;3.40;;;17.50;99.90;;;17.70;100.00;100335.94;5006104;28;20073;-74
2022/06/25 05:32:35;;;;;;;8.77;3.80;;;17.50;99.90;;;17.75;100.00;100334.84;4988903;28;20069;-74
2022/06/25 05:35:02;;;;;;;5.55;3.63;;;17.50;99.90;;;17.80;100.00;100330.97;4973209;28;20035;-74
2022/06/25 05:37:29;;;;;;;5.70;3.38;;;17.60;99.90;;;17.84;100.00;100327.19;4960661;28;20455;-73
2022/06/25 05:39:57;;;;;;;3.97;2.90;;;17.60;99.90;;;17.87;100.00;100334.16;4990228;28;20109;-74
2022/06/25 05:42:28;;;;;;;6.00;3.55;;;17.70;99.90;;;17.94;100.00;100332.03;4966224;28;20515;-74
2022/06/25 05:44:57;;;;;;;4.03;2.63;;;17.70;99.90;;;17.97;100.00;100335.38;4986533;28;20240;-74
2022/06/25 05:47:24;;;;;;;3.15;2.88;;;17.80;99.90;;;18.02;100.00;100328.94;4984874;28;20050;-75
2022/06/25 05:49:51;;;;;;;4.45;2.67;;;17.80;99.90;;;18.13;100.00;100329.22;4970742;28;20043;-73
2022/06/25 05:52:18;;;;;;;4.13;2.45;;;17.90;99.90;;;18.16;100.00;100333.50;4982146;28;20050;-74
2022/06/25 05:54:45;;;;;;;7.82;2.67;;;18.00;99.90;;;18.22;100.00;100323.38;4981530;28;20038;-75
2022/06/25 05:57:12;;;;;;;2.50;2.22;;;18.00;99.90;;;18.31;100.00;100335.28;4971665;28;20051;-74
2022/06/25 05:59:39;;;;;;;4.55;2.55;;;18.10;99.90;;;18.32;100.00;100326.34;4979777;28;20043;-75
2022/06/25 06:02:12;;;;;;;3.75;2.15;;;18.20;99.90;;;18.43;100.00;100331.09;4973621;28;20047;-75
2022/06/25 06:04:39;;;;;;;3.28;2.22;;;18.20;99.90;;;18.52;100.00;100337.69;4974702;28;20057;-75
2022/06/25 06:07:07;;;;;;;4.22;2.50;;;18.30;99.90;;;18.50;100.00;100340.44;4978128;28;20045;-75
2022/06/25 06:09:34;;;;;;;4.38;2.50;;;18.40;99.90;;;18.58;100.00;100331.16;4987766;28;20038;-77
2022/06/25 06:12:04;;;;;;;5.45;2.60;;;18.40;99.90;;;18.67;100.00;100326.13;4990573;28;20046;-78
2022/06/25 06:14:31;;;;;;;4.82;2.40;;;18.40;99.90;;;18.71;100.00;100335.66;4990134;28;20482;-76
2022/06/25 06:16:58;;;;;;;5.75;2.40;;;18.50;99.90;;;18.79;100.00;100337.00;4997912;28;20034;-77
2022/06/25 06:19:26;;;;;;;3.50;2.17;;;18.60;99.90;;;18.77;100.00;100339.78;4991834;28;20098;-76
2022/06/25 06:21:53;;;;;;;4.00;2.50;;;18.70;99.90;;;18.82;100.00;100336.84;4974271;28;20050;-77
2022/06/25 06:24:20;;;;;;;4.68;2.03;;;18.70;99.90;;;18.96;100.00;100341.34;4980220;28;20065;-78
2022/06/25 06:26:47;;;;;;;4.65;2.20;;;18.70;99.90;;;18.95;100.00;100340.47;4992331;28;20042;-78
2022/06/25 06:29:14;;;;;;;2.58;1.83;;;18.70;99.90;;;19.12;100.00;100344.84;4982431;28;20046;-79
2022/06/25 06:31:41;;;;;;;4.22;2.25;;;18.80;99.90;;;19.12;100.00;100344.84;4954499;28;20058;-78
2022/06/25 06:34:08;;;;;;;2.72;1.52;;;19.00;99.90;;;19.16;100.00;100347.31;4997919;28;20057;-79
2022/06/25 06:36:38;;;;;;;4.38;2.35;;;19.00;99.90;;;19.12;100.00;100355.50;4999312;28;20051;-80
2022/06/25 06:39:05;;;;;;;4.97;2.20;;;19.00;99.90;;;19.23;100.00;100352.19;4976908;28;20108;-75
2022/06/25 06:41:32;;;;;;;2.08;1.80;;;19.10;99.90;;;19.32;100.00;100345.41;4980545;28;20039;-74
2022/06/25 06:43:59;;;;;;;4.80;2.10;;;19.10;99.90;;;19.24;100.00;100345.88;4980429;28;20485;-74
2022/06/25 06:46:26;;;;;;;4.03;2.20;;;19.20;99.90;;;19.37;100.00;100354.03;4963291;28;20052;-74
2022/06/25 06:48:53;;;;;;;4.30;2.70;;;19.20;99.90;;;19.36;100.00;100346.97;4985808;28;20043;-74
2022/06/25 06:51:20;;;;;;;4.15;2.25;;;19.20;99.90;;;19.47;100.00;100346.31;4987125;28;20046;-77
2022/06/25 06:53:49;;;;;;;3.30;1.98;;;19.20;99.90;;;19.54;100.00;100346.78;4996547;28;20081;-77
2022/06/25 06:56:16;;;;;;;4.30;1.65;;;19.50;99.90;;;19.58;100.00;100340.28;4995665;28;20042;-78
2022/06/25 06:58:43;;;;;;;2.97;2.00;;;19.30;99.90;;;19.82;100.00;100347.69;4978372;28;20060;-79
2022/06/25 07:01:10;;;;;;;2.65;1.65;;;19.40;99.90;;;19.93;100.00;100341.72;4978536;28;20113;-79
2022/06/25 07:03:37;;;;;;;3.17;1.90;;;19.60;99.90;;;19.93;100.00;100342.56;4973534;28;20408;-78
2022/06/25 07:06:04;;;;;;;3.75;2.00;;;19.60;99.90;;;19.92;100.00;100354.22;4977234;28;20054;-77
2022/06/25 07:08:32;;;;;;;6.90;2.33;;;19.70;99.90;;;20.09;100.00;100349.59;4963298;28;20056;-78
2022/06/25 07:10:59;;;;;;;4.20;1.98;;;19.80;99.90;;;20.07;100.00;100344.38;4994043;28;20415;-78
2022/06/25 07:13:26;;;;;;;2.85;2.10;;;19.80;99.90;;;20.08;100.00;100348.75;4977868;28;20054;-79
2022/06/25 07:15:53;;;;;;;2.92;2.10;;;19.90;99.90;;;20.18;100.00;100343.66;4994298;28;20133;-79
2022/06/25 07:18:20;;;;;;;4.82;2.17;;;19.90;99.90;;;20.16;100.00;100342.03;4998462;28;20053;-78
2022/06/25 07:20:47;;;;;;;2.40;1.85;;;20.00;99.90;;;20.18;100.00;100338.34;4987816;28;20069;-78
2022/06/25 07:23:18;;;;;;;2.20;2.00;;;20.00;99.90;;;20.29;100.00;100336.75;4986202;28;20051;-78
2022/06/25 07:25:45;;;;;;;1.92;1.73;;;20.00;99.90;;;20.32;100.00;100342.75;4997780;28;20046;-77
2022/06/25 07:28:12;;;;;;;1.85;1.65;;;20.00;99.90;;;20.32;100.00;100331.22;4996003;28;20538;-77
2022/06/25 07:30:39;;;;;;;4.05;2.00;;;20.00;99.90;;;20.35;100.00;100331.88;4985664;28;20081;-78
2022/06/25 07:33:06;;;;;;;3.30;2.05;;;20.10;99.90;;;20.38;100.00;100329.00;4993764;28;20070;-79
2022/06/25 07:35:33;;;;;;;2.10;1.88;;;20.10;99.90;;;20.46;100.00;100325.84;4992899;28;20054;-79
2022/06/25 07:38:00;;;;;;;4.05;2.08;;;20.10;99.90;;;20.52;100.00;100321.88;4981381;28;20147;-80
2022/06/25 07:40:28;;;;;;;4.53;1.90;;;20.20;99.90;;;20.57;100.00;100326.91;4984312;28;20061;-79
2022/06/25 07:42:55;;;;;;;4.95;1.90;;;20.20;99.90;;;20.62;100.00;100328.31;4977868;28;20047;-81
2022/06/25 07:45:22;;;;;;;5.00;2.60;;;20.30;99.90;;;20.61;100.00;100323.94;4983060;28;20508;-79
2022/06/25 07:47:49;;;;;;;4.10;2.55;;;20.40;99.90;;;20.60;100.00;100326.69;4989752;28;20070;-80
2022/06/25 07:53:03;;;;;;;2.38;1.52;;;20.50;99.90;;;20.77;100.00;100312.22;4988658;28;20093;-79
2022/06/25 07:55:30;;;;;;;2.97;1.83;;;20.40;99.90;;;20.78;100.00;100321.94;4986552;28;20050;-82
2022/06/25 07:57:57;;;;;;;9.05;2.03;;;20.50;99.90;;;20.86;100.00;100316.09;4940635;28;20047;-80
2022/06/25 08:00:24;;;;;;;2.63;1.67;;;20.50;99.90;;;20.97;100.00;100309.06;4956471;28;20046;-81
2022/06/25 08:02:52;;;;;;;3.28;1.80;;;20.60;99.90;;;21.06;100.00;100304.88;4976314;28;20066;-81
2022/06/25 08:05:19;;;;;;;5.28;2.42;;;20.70;99.90;;;21.03;100.00;100306.94;4959938;28;20476;-80
2022/06/25 08:07:48;;;;;;;3.80;1.90;;;20.80;99.90;;;21.14;100.00;100306.19;4958485;28;20057;-81
2022/06/25 08:10:16;;;;;;;4.97;1.90;;;20.80;99.90;;;21.20;100.00;100301.25;4956805;28;20051;-80
2022/06/25 08:12:43;;;;;;;3.10;1.70;;;20.90;99.90;;;21.20;100.00;100305.75;4972433;28;20695;-82
2022/06/25 08:15:11;;;;;;;3.50;1.77;;;20.90;99.90;;;21.16;100.00;100293.56;4956474;28;20496;-83
2022/06/25 08:17:38;;;;;;;2.03;1.52;;;21.00;99.90;;;21.18;100.00;100294.28;4956456;28;20054;-82
2022/06/25 08:20:06;;;;;;;3.15;1.83;;;21.00;99.90;;;21.40;100.00;100290.97;4955484;28;20129;-82
2022/06/25 08:22:33;;;;;;;10.93;2.40;;;21.00;99.90;;;21.48;100.00;100295.78;4971673;28;20214;-80
2022/06/25 08:25:00;;;;;;;2.72;1.92;;;21.10;99.90;;;21.48;100.00;100293.09;4955881;28;20137;-82
2022/06/25 08:27:29;;;;;;;4.63;1.90;;;21.20;99.90;;;21.53;100.00;100289.13;4988010;28;20046;-81
2022/06/25 08:29:56;;;;;;;3.55;1.73;;;21.30;99.90;;;21.80;100.00;100293.50;4992384;28;20092;-81
2022/06/25 08:32:24;;;;;;;3.15;1.85;;;21.30;99.90;;;21.81;100.00;100292.53;4987951;28;20085;-80
2022/06/25 08:34:51;;;;;;;3.35;1.77;;;21.50;99.90;;;21.99;100.00;100297.50;4954725;28;20081;-80
2022/06/25 08:37:18;;;;;;;4.80;1.80;;;21.60;99.90;;;22.13;100.00;100292.97;4983670;28;20053;-80
2022/06/25 08:39:45;;;;;;;3.72;1.50;;;21.70;99.90;;;22.10;100.00;100283.31;4969816;28;20141;-82
2022/06/25 08:42:12;;;;;;;5.63;1.55;;;21.50;99.80;;;22.16;100.00;100285.53;4971918;28;20104;-80
2022/06/25 08:44:39;;;;;;;3.13;1.77;;;21.80;99.40;;;22.30;100.00;100284.50;4988502;28;20065;-83
2022/06/25 08:47:06;;;;;;;4.03;1.52;;;21.90;99.50;;;22.39;100.00;100277.59;4983980;28;20059;-86
2022/06/25 08:49:34;;;;;;;3.95;1.65;;;22.00;99.50;;;22.43;100.00;100280.91;4961131;28;20126;-84
2022/06/25 08:52:03;;;;;;;3.95;2.03;;;22.10;99.40;;;22.56;100.00;100281.72;4960529;28;20066;-81
2022/06/25 08:54:33;;;;;;;8.90;1.90;;;22.10;99.30;;;22.71;100.00;100286.88;4960264;28;20047;-82
2022/06/25 08:57:02;;;;;;;8.98;1.83;;;22.30;99.40;;;22.71;100.00;100277.00;4944803;28;20133;-81
2022/06/25 08:59:30;;;;;;;4.35;1.73;;;22.40;98.60;;;22.80;100.00;100272.75;4972112;28;20473;-84
2022/06/25 09:01:58;;;;;;;2.72;1.60;;;22.40;98.80;;;22.92;100.00;100270.94;4946202;28;20732;-79
2022/06/25 09:04:26;;;;;;;1.90;1.70;;;22.50;98.80;;;23.09;100.00;100277.69;4951718;28;20074;-81
2022/06/25 09:07:14;;;;;;;1.63;1.40;;;22.60;98.60;;;23.26;100.00;100276.41;4951061;28;20213;-77
2022/06/25 09:09:50;;;;;;;4.70;2.00;;;22.70;98.40;;;23.25;100.00;100276.47;4953780;28;20082;-79
2022/06/25 09:12:18;;;;;;;3.28;1.95;;;22.90;97.70;;;23.12;100.00;100272.06;4968177;28;20149;-79
2022/06/25 09:14:45;;;;;;;39.83;25.65;;;22.90;97.60;;;23.14;100.00;100275.47;4968970;28;20047;-79
2022/06/25 09:17:14;;;;;;;18.27;14.15;;;22.90;97.50;;;23.11;100.00;100269.53;4952671;28;20050;-79
2022/06/25 09:19:51;;;;;;;7.45;5.40;;;22.90;97.50;;;23.42;100.00;100269.81;4968163;28;20083;-79
2022/06/25 09:22:23;;;;;;;4.03;2.08;;;22.90;98.10;;;23.52;100.00;100265.38;4968865;28;20134;-80
2022/06/25 09:24:55;;;;;;;4.97;4.05;;;23.10;97.60;;;23.75;100.00;100262.69;4968666;28;20548;-79
2022/06/25 09:27:37;;;;;;;4.75;3.05;;;23.20;97.50;;;23.91;100.00;100265.81;4969036;28;20058;-79
2022/06/25 09:30:19;;;;;;;4.63;1.77;;;23.30;97.10;;;23.49;100.00;100261.13;4952651;28;20067;-80
2022/06/25 09:32:51;;;;;;;4.22;1.55;;;23.40;96.70;;;23.44;100.00;100271.38;4938342;28;20130;-80
2022/06/25 09:35:31;;;;;;;2.65;2.28;;;23.40;96.10;;;23.72;100.00;100268.28;4967472;28;20050;-80
2022/06/25 09:38:10;;;;;;;;;;;23.30;96.70;;;23.84;100.00;100253.03;4974638;28;20072;-80
2022/06/25 09:40:39;;;;;;;3.05;1.52;;;23.40;96.30;;;23.85;100.00;100260.09;4988524;28;19930;-78
2022/06/25 09:43:15;;;;;;;4.72;1.73;;;23.40;96.60;;;23.84;100.00;100247.66;4971664;28;20553;-78
2022/06/25 09:45:48;;;;;;;3.22;2.15;;;23.50;96.40;;;23.82;100.00;100241.56;4971637;28;20054;-80
2022/06/25 09:48:28;;;;;;;2.20;1.52;;;23.50;96.20;;;23.73;100.00;100233.25;4987492;28;20039;-79
2022/06/25 09:51:15;;;;;;;2.33;1.77;;;23.50;95.70;;;23.90;100.00;100231.00;4988833;28;20050;-78
2022/06/25 09:53:55;;;;;;;2.13;1.17;;;23.50;95.90;;;24.00;100.00;100228.41;4955446;28;20149;-79
2022/06/25 09:56:31;;;;;;;1.33;1.20;;;23.60;95.60;;;23.89;100.00;100221.25;4971665;28;20622;-78
2022/06/25 09:58:59;;;;;;;1.77;1.38;;;23.50;95.00;;;23.93;100.00;100223.56;4986901;28;20038;-78
2022/06/25 10:01:32;;;;;;;2.17;1.60;;;23.60;95.20;;;24.12;100.00;100222.03;4982625;28;20067;-78
2022/06/25 10:04:03;;;;;;;2.33;1.40;;;23.70;95.70;;;24.13;100.00;100234.50;4968204;28;20042;-79
2022/06/25 10:06:36;;;;;;;3.28;1.50;;;23.80;94.90;;;24.28;100.00;100227.00;4968191;28;20066;-78
2022/06/25 10:09:06;;;;;;;3.95;1.50;;;23.90;95.10;;;24.40;100.00;100230.47;4967483;28;20090;-79
2022/06/25 10:11:34;;;;;;;2.13;1.60;;;24.00;94.80;;;24.14;100.00;100233.53;4969133;28;20122;-78
2022/06/25 10:14:02;;;;;;;2.38;1.25;;;24.00;94.50;;;24.25;100.00;100221.03;4956683;28;20385;-81
2022/06/25 10:16:30;;;;;;;1.80;1.25;;;23.90;94.20;;;24.25;100.00;100219.16;4942122;28;20050;-79
2022/06/25 10:19:00;;;;;;;1.88;1.40;;;24.00;94.10;;;24.53;100.00;100211.44;4942434;28;20066;-81
2022/06/25 10:21:27;;;;;;;1.60;1.33;;;24.10;94.30;;;24.72;100.00;100208.03;4974692;28;20559;-81
2022/06/25 10:24:00;;;;;;;3.20;1.20;;;24.20;94.30;;;24.92;100.00;100208.16;4986725;28;20612;-80
2022/06/25 10:26:28;;;;;;;1.98;1.50;;;24.40;94.30;;;24.96;100.00;100198.81;4976861;28;20074;-80
2022/06/25 10:28:55;;;;;;;1.85;1.17;;;24.50;93.90;;;25.04;100.00;100198.16;4957381;28;20070;-80
2022/06/25 10:31:22;;;;;;;1.50;1.40;;;24.50;94.40;;;24.90;99.16;100202.06;4957094;28;20047;-81
2022/06/25 10:34:04;;;;;;;2.45;1.25;;;24.50;93.40;;;24.83;99.81;100199.06;4982262;28;20459;-79